sensor_id;sensor_type;location;lat;lon;timestamp;P1;durP1;ratioP1;P2;durP2;ratioP2
72319;SDS011;60269;52.502;16.732;2024-01-27T00:02:56;9.35;;;1.02;;
72319;SDS011;60269;52.502;16.732;2024-01-27T00:06:28;9.20;;;0.87;;
72319;SDS011;60269;52.502;16.732;2024-01-27T00:10:01;5.43;;;0.70;;
72319;SDS011;60269;52.502;16.732;2024-01-27T00:13:33;7.18;;;1.27;;
72319;SDS011;60269;52.502;16.732;2024-01-27T00:17:05;5.57;;;0.63;;
72319;SDS011;60269;52.502;16.732;2024-01-27T00:20:37;10.20;;;0.80;;
72319;SDS011;60269;52.502;16.732;2024-01-27T00:24:09;5.53;;;0.73;;
72319;SDS011;60269;52.502;16.732;2024-01-27T00:27:41;4.32;;;0.73;;
72319;SDS011;60269;52.502;16.732;2024-01-27T00:31:13;6.17;;;0.60;;
72319;SDS011;60269;52.502;16.732;2024-01-27T00:34:45;6.93;;;0.60;;
72319;SDS011;60269;52.502;16.732;2024-01-27T00:38:17;9.88;;;1.05;;
72319;SDS011;60269;52.502;16.732;2024-01-27T00:41:49;9.57;;;0.87;;
72319;SDS011;60269;52.502;16.732;2024-01-27T00:45:21;9.30;;;0.43;;
72319;SDS011;60269;52.502;16.732;2024-01-27T00:48:58;5.60;;;0.80;;
72319;SDS011;60269;52.502;16.732;2024-01-27T00:52:30;13.33;;;1.00;;
72319;SDS011;60269;52.502;16.732;2024-01-27T00:56:02;12.15;;;0.57;;
72319;SDS011;60269;52.502;16.732;2024-01-27T00:59:40;12.32;;;1.60;;
72319;SDS011;60269;52.502;16.732;2024-01-27T01:03:12;7.47;;;0.55;;
72319;SDS011;60269;52.502;16.732;2024-01-27T01:06:44;4.80;;;1.10;;
72319;SDS011;60269;52.502;16.732;2024-01-27T01:10:16;6.93;;;1.05;;
72319;SDS011;60269;52.502;16.732;2024-01-27T01:13:49;9.73;;;0.65;;
72319;SDS011;60269;52.502;16.732;2024-01-27T01:17:21;4.93;;;0.43;;
72319;SDS011;60269;52.502;16.732;2024-01-27T01:20:53;11.98;;;0.93;;
72319;SDS011;60269;52.502;16.732;2024-01-27T01:24:25;14.60;;;1.10;;
72319;SDS011;60269;52.502;16.732;2024-01-27T01:27:57;11.77;;;1.10;;
72319;SDS011;60269;52.502;16.732;2024-01-27T01:31:29;8.20;;;0.63;;
72319;SDS011;60269;52.502;16.732;2024-01-27T01:35:01;6.72;;;1.20;;
72319;SDS011;60269;52.502;16.732;2024-01-27T01:38:33;9.98;;;0.57;;
72319;SDS011;60269;52.502;16.732;2024-01-27T01:42:05;6.67;;;1.03;;
72319;SDS011;60269;52.502;16.732;2024-01-27T01:45:37;15.43;;;0.77;;
72319;SDS011;60269;52.502;16.732;2024-01-27T01:49:09;8.18;;;0.73;;
72319;SDS011;60269;52.502;16.732;2024-01-27T01:52:42;9.87;;;1.47;;
72319;SDS011;60269;52.502;16.732;2024-01-27T01:56:15;9.38;;;1.25;;
72319;SDS011;60269;52.502;16.732;2024-01-27T01:59:47;6.75;;;0.47;;
72319;SDS011;60269;52.502;16.732;2024-01-27T02:03:19;6.73;;;0.83;;
72319;SDS011;60269;52.502;16.732;2024-01-27T02:06:51;6.65;;;0.70;;
72319;SDS011;60269;52.502;16.732;2024-01-27T02:10:23;5.90;;;0.82;;
72319;SDS011;60269;52.502;16.732;2024-01-27T02:13:55;8.95;;;0.85;;
72319;SDS011;60269;52.502;16.732;2024-01-27T02:17:28;6.57;;;0.73;;
72319;SDS011;60269;52.502;16.732;2024-01-27T02:21:00;9.10;;;0.70;;
72319;SDS011;60269;52.502;16.732;2024-01-27T02:24:32;7.07;;;1.00;;
72319;SDS011;60269;52.502;16.732;2024-01-27T02:28:04;8.17;;;0.43;;
72319;SDS011;60269;52.502;16.732;2024-01-27T02:31:37;7.13;;;0.47;;
72319;SDS011;60269;52.502;16.732;2024-01-27T02:35:09;14.85;;;0.93;;
72319;SDS011;60269;52.502;16.732;2024-01-27T02:38:41;3.60;;;0.37;;
72319;SDS011;60269;52.502;16.732;2024-01-27T02:42:13;7.63;;;0.70;;
72319;SDS011;60269;52.502;16.732;2024-01-27T02:45:46;19.02;;;0.73;;
72319;SDS011;60269;52.502;16.732;2024-01-27T02:49:18;9.88;;;0.50;;
72319;SDS011;60269;52.502;16.732;2024-01-27T02:52:50;8.10;;;0.43;;
72319;SDS011;60269;52.502;16.732;2024-01-27T02:56:22;9.27;;;0.63;;
72319;SDS011;60269;52.502;16.732;2024-01-27T02:59:54;10.75;;;0.73;;
72319;SDS011;60269;52.502;16.732;2024-01-27T03:03:27;16.57;;;1.17;;
72319;SDS011;60269;52.502;16.732;2024-01-27T03:07:00;10.18;;;0.60;;
72319;SDS011;60269;52.502;16.732;2024-01-27T03:10:33;13.50;;;0.95;;
72319;SDS011;60269;52.502;16.732;2024-01-27T03:14:05;10.33;;;0.60;;
72319;SDS011;60269;52.502;16.732;2024-01-27T03:17:37;4.43;;;0.47;;
72319;SDS011;60269;52.502;16.732;2024-01-27T03:21:09;7.88;;;0.70;;
72319;SDS011;60269;52.502;16.732;2024-01-27T03:24:41;7.32;;;0.75;;
72319;SDS011;60269;52.502;16.732;2024-01-27T03:28:13;8.67;;;0.57;;
72319;SDS011;60269;52.502;16.732;2024-01-27T03:31:45;13.10;;;1.10;;
72319;SDS011;60269;52.502;16.732;2024-01-27T03:35:17;4.75;;;0.63;;
72319;SDS011;60269;52.502;16.732;2024-01-27T03:38:49;10.03;;;1.60;;
72319;SDS011;60269;52.502;16.732;2024-01-27T03:42:21;7.38;;;0.70;;
72319;SDS011;60269;52.502;16.732;2024-01-27T03:45:56;9.25;;;0.82;;
72319;SDS011;60269;52.502;16.732;2024-01-27T03:49:28;4.40;;;0.60;;
72319;SDS011;60269;52.502;16.732;2024-01-27T03:53:01;6.90;;;0.30;;
72319;SDS011;60269;52.502;16.732;2024-01-27T03:56:33;10.18;;;1.10;;
72319;SDS011;60269;52.502;16.732;2024-01-27T04:00:05;14.65;;;0.85;;
72319;SDS011;60269;52.502;16.732;2024-01-27T04:03:38;8.47;;;0.70;;
72319;SDS011;60269;52.502;16.732;2024-01-27T04:07:10;14.07;;;0.77;;
72319;SDS011;60269;52.502;16.732;2024-01-27T04:10:42;12.18;;;0.60;;
72319;SDS011;60269;52.502;16.732;2024-01-27T04:14:14;6.00;;;0.30;;
72319;SDS011;60269;52.502;16.732;2024-01-27T04:17:46;5.07;;;0.35;;
72319;SDS011;60269;52.502;16.732;2024-01-27T04:21:18;6.93;;;0.40;;
72319;SDS011;60269;52.502;16.732;2024-01-27T04:24:50;10.23;;;1.20;;
72319;SDS011;60269;52.502;16.732;2024-01-27T04:28:22;10.05;;;0.90;;
72319;SDS011;60269;52.502;16.732;2024-01-27T04:31:55;11.13;;;1.00;;
72319;SDS011;60269;52.502;16.732;2024-01-27T04:35:27;5.53;;;0.60;;
72319;SDS011;60269;52.502;16.732;2024-01-27T04:38:59;15.97;;;2.10;;
72319;SDS011;60269;52.502;16.732;2024-01-27T04:42:34;15.93;;;0.98;;
72319;SDS011;60269;52.502;16.732;2024-01-27T04:46:06;4.45;;;0.63;;
72319;SDS011;60269;52.502;16.732;2024-01-27T04:49:39;10.63;;;0.83;;
72319;SDS011;60269;52.502;16.732;2024-01-27T04:53:11;9.75;;;1.17;;
72319;SDS011;60269;52.502;16.732;2024-01-27T04:56:43;11.43;;;0.55;;
72319;SDS011;60269;52.502;16.732;2024-01-27T05:00:15;8.07;;;0.63;;
72319;SDS011;60269;52.502;16.732;2024-01-27T05:03:47;8.50;;;0.80;;
72319;SDS011;60269;52.502;16.732;2024-01-27T05:07:19;5.43;;;1.17;;
72319;SDS011;60269;52.502;16.732;2024-01-27T05:10:51;9.73;;;0.82;;
72319;SDS011;60269;52.502;16.732;2024-01-27T05:14:27;6.47;;;0.33;;
72319;SDS011;60269;52.502;16.732;2024-01-27T05:18:00;6.00;;;0.88;;
72319;SDS011;60269;52.502;16.732;2024-01-27T05:21:32;5.20;;;0.73;;
72319;SDS011;60269;52.502;16.732;2024-01-27T05:25:04;7.97;;;0.77;;
72319;SDS011;60269;52.502;16.732;2024-01-27T05:28:37;10.98;;;0.70;;
72319;SDS011;60269;52.502;16.732;2024-01-27T05:32:09;6.55;;;0.60;;
72319;SDS011;60269;52.502;16.732;2024-01-27T05:35:41;9.33;;;1.47;;
72319;SDS011;60269;52.502;16.732;2024-01-27T05:39:13;10.93;;;0.80;;
72319;SDS011;60269;52.502;16.732;2024-01-27T05:42:46;8.75;;;0.75;;
72319;SDS011;60269;52.502;16.732;2024-01-27T05:46:18;5.65;;;0.50;;
72319;SDS011;60269;52.502;16.732;2024-01-27T05:49:50;9.27;;;0.80;;
72319;SDS011;60269;52.502;16.732;2024-01-27T05:53:22;9.30;;;0.85;;
72319;SDS011;60269;52.502;16.732;2024-01-27T05:56:54;15.85;;;1.27;;
72319;SDS011;60269;52.502;16.732;2024-01-27T06:00:26;6.90;;;0.50;;
72319;SDS011;60269;52.502;16.732;2024-01-27T06:03:58;15.70;;;0.85;;
72319;SDS011;60269;52.502;16.732;2024-01-27T06:07:30;10.02;;;0.52;;
72319;SDS011;60269;52.502;16.732;2024-01-27T06:11:03;11.13;;;1.60;;
72319;SDS011;60269;52.502;16.732;2024-01-27T06:14:40;13.88;;;0.70;;
72319;SDS011;60269;52.502;16.732;2024-01-27T06:18:12;6.45;;;0.82;;
72319;SDS011;60269;52.502;16.732;2024-01-27T06:21:45;6.50;;;0.73;;
72319;SDS011;60269;52.502;16.732;2024-01-27T06:25:17;6.93;;;0.40;;
72319;SDS011;60269;52.502;16.732;2024-01-27T06:28:49;5.72;;;0.88;;
72319;SDS011;60269;52.502;16.732;2024-01-27T06:32:21;9.00;;;0.80;;
72319;SDS011;60269;52.502;16.732;2024-01-27T06:35:54;12.43;;;1.17;;
72319;SDS011;60269;52.502;16.732;2024-01-27T06:39:26;9.27;;;0.90;;
72319;SDS011;60269;52.502;16.732;2024-01-27T06:42:58;7.35;;;1.15;;
72319;SDS011;60269;52.502;16.732;2024-01-27T06:46:33;14.83;;;1.50;;
72319;SDS011;60269;52.502;16.732;2024-01-27T06:50:05;11.07;;;1.08;;
72319;SDS011;60269;52.502;16.732;2024-01-27T06:53:38;5.45;;;0.57;;
72319;SDS011;60269;52.502;16.732;2024-01-27T06:57:23;14.73;;;1.02;;
72319;SDS011;60269;52.502;16.732;2024-01-27T07:00:56;4.53;;;0.67;;
72319;SDS011;60269;52.502;16.732;2024-01-27T07:04:28;11.15;;;1.40;;
72319;SDS011;60269;52.502;16.732;2024-01-27T07:08:00;7.30;;;0.73;;
72319;SDS011;60269;52.502;16.732;2024-01-27T07:11:34;11.53;;;0.73;;
72319;SDS011;60269;52.502;16.732;2024-01-27T07:15:06;10.73;;;0.93;;
72319;SDS011;60269;52.502;16.732;2024-01-27T07:18:38;6.30;;;0.60;;
72319;SDS011;60269;52.502;16.732;2024-01-27T07:22:10;6.63;;;0.70;;
72319;SDS011;60269;52.502;16.732;2024-01-27T07:25:42;10.02;;;1.30;;
72319;SDS011;60269;52.502;16.732;2024-01-27T07:29:14;9.25;;;1.55;;
72319;SDS011;60269;52.502;16.732;2024-01-27T07:32:46;12.60;;;1.30;;
72319;SDS011;60269;52.502;16.732;2024-01-27T07:36:20;13.90;;;1.00;;
72319;SDS011;60269;52.502;16.732;2024-01-27T07:39:52;12.27;;;1.15;;
72319;SDS011;60269;52.502;16.732;2024-01-27T07:43:25;10.82;;;0.80;;
72319;SDS011;60269;52.502;16.732;2024-01-27T07:46:57;9.97;;;0.83;;
72319;SDS011;60269;52.502;16.732;2024-01-27T07:50:29;6.18;;;1.08;;
72319;SDS011;60269;52.502;16.732;2024-01-27T07:54:01;14.00;;;0.80;;
72319;SDS011;60269;52.502;16.732;2024-01-27T07:57:33;7.23;;;1.23;;
72319;SDS011;60269;52.502;16.732;2024-01-27T08:01:05;11.70;;;0.93;;
72319;SDS011;60269;52.502;16.732;2024-01-27T08:04:38;8.13;;;1.10;;
72319;SDS011;60269;52.502;16.732;2024-01-27T08:08:11;13.60;;;1.38;;
72319;SDS011;60269;52.502;16.732;2024-01-27T08:11:43;17.77;;;1.50;;
72319;SDS011;60269;52.502;16.732;2024-01-27T08:15:15;16.13;;;2.10;;
72319;SDS011;60269;52.502;16.732;2024-01-27T08:18:47;7.88;;;1.38;;
72319;SDS011;60269;52.502;16.732;2024-01-27T08:22:20;5.73;;;1.00;;
72319;SDS011;60269;52.502;16.732;2024-01-27T08:25:52;10.93;;;1.27;;
72319;SDS011;60269;52.502;16.732;2024-01-27T08:29:24;9.82;;;1.13;;
72319;SDS011;60269;52.502;16.732;2024-01-27T08:32:56;13.43;;;1.20;;
72319;SDS011;60269;52.502;16.732;2024-01-27T08:36:28;9.43;;;0.95;;
72319;SDS011;60269;52.502;16.732;2024-01-27T08:40:00;13.30;;;1.58;;
72319;SDS011;60269;52.502;16.732;2024-01-27T08:43:32;11.23;;;0.93;;
72319;SDS011;60269;52.502;16.732;2024-01-27T08:47:05;9.63;;;1.50;;
72319;SDS011;60269;52.502;16.732;2024-01-27T08:50:39;12.20;;;1.30;;
72319;SDS011;60269;52.502;16.732;2024-01-27T08:54:11;13.68;;;1.30;;
72319;SDS011;60269;52.502;16.732;2024-01-27T08:57:43;8.13;;;0.97;;
72319;SDS011;60269;52.502;16.732;2024-01-27T09:01:16;7.32;;;1.02;;
72319;SDS011;60269;52.502;16.732;2024-01-27T09:04:48;11.65;;;1.63;;
72319;SDS011;60269;52.502;16.732;2024-01-27T09:08:20;10.23;;;1.07;;
72319;SDS011;60269;52.502;16.732;2024-01-27T09:11:52;6.60;;;1.20;;
72319;SDS011;60269;52.502;16.732;2024-01-27T09:15:25;12.75;;;1.48;;
72319;SDS011;60269;52.502;16.732;2024-01-27T09:18:57;12.45;;;1.63;;
72319;SDS011;60269;52.502;16.732;2024-01-27T09:22:29;12.70;;;1.53;;
72319;SDS011;60269;52.502;16.732;2024-01-27T09:26:01;8.73;;;0.63;;
72319;SDS011;60269;52.502;16.732;2024-01-27T09:29:33;7.30;;;0.95;;
72319;SDS011;60269;52.502;16.732;2024-01-27T09:33:05;11.40;;;0.87;;
72319;SDS011;60269;52.502;16.732;2024-01-27T09:36:38;11.55;;;1.40;;
72319;SDS011;60269;52.502;16.732;2024-01-27T09:40:10;16.48;;;1.42;;
72319;SDS011;60269;52.502;16.732;2024-01-27T09:43:43;12.27;;;1.37;;
72319;SDS011;60269;52.502;16.732;2024-01-27T09:47:16;10.02;;;1.08;;
72319;SDS011;60269;52.502;16.732;2024-01-27T09:50:48;12.55;;;1.25;;
72319;SDS011;60269;52.502;16.732;2024-01-27T09:54:22;13.77;;;1.58;;
72319;SDS011;60269;52.502;16.732;2024-01-27T09:57:54;13.10;;;2.00;;
72319;SDS011;60269;52.502;16.732;2024-01-27T10:01:26;14.63;;;2.45;;
72319;SDS011;60269;52.502;16.732;2024-01-27T10:05:01;5.82;;;0.95;;
72319;SDS011;60269;52.502;16.732;2024-01-27T10:08:34;6.40;;;0.97;;
72319;SDS011;60269;52.502;16.732;2024-01-27T10:12:06;14.13;;;1.52;;
72319;SDS011;60269;52.502;16.732;2024-01-27T10:15:39;15.23;;;1.63;;
72319;SDS011;60269;52.502;16.732;2024-01-27T10:19:15;14.50;;;1.43;;
72319;SDS011;60269;52.502;16.732;2024-01-27T10:22:49;13.20;;;0.95;;
72319;SDS011;60269;52.502;16.732;2024-01-27T10:26:22;8.02;;;1.08;;
72319;SDS011;60269;52.502;16.732;2024-01-27T10:29:54;9.73;;;1.23;;
72319;SDS011;60269;52.502;16.732;2024-01-27T10:33:27;13.80;;;1.50;;
72319;SDS011;60269;52.502;16.732;2024-01-27T10:37:04;10.32;;;1.45;;
72319;SDS011;60269;52.502;16.732;2024-01-27T10:40:36;11.50;;;1.17;;
72319;SDS011;60269;52.502;16.732;2024-01-27T10:44:09;10.37;;;1.30;;
72319;SDS011;60269;52.502;16.732;2024-01-27T10:47:45;10.07;;;1.38;;
72319;SDS011;60269;52.502;16.732;2024-01-27T10:51:23;6.07;;;0.60;;
72319;SDS011;60269;52.502;16.732;2024-01-27T10:55:05;15.77;;;1.40;;
72319;SDS011;60269;52.502;16.732;2024-01-27T10:58:39;10.45;;;1.20;;
72319;SDS011;60269;52.502;16.732;2024-01-27T11:02:14;8.35;;;1.10;;
72319;SDS011;60269;52.502;16.732;2024-01-27T11:05:46;9.25;;;1.55;;
72319;SDS011;60269;52.502;16.732;2024-01-27T11:09:19;8.33;;;0.80;;
72319;SDS011;60269;52.502;16.732;2024-01-27T11:12:52;10.93;;;1.50;;
72319;SDS011;60269;52.502;16.732;2024-01-27T11:16:27;9.35;;;0.90;;
72319;SDS011;60269;52.502;16.732;2024-01-27T11:20:00;9.13;;;1.00;;
72319;SDS011;60269;52.502;16.732;2024-01-27T11:23:33;10.45;;;0.85;;
72319;SDS011;60269;52.502;16.732;2024-01-27T11:27:07;11.35;;;1.25;;
72319;SDS011;60269;52.502;16.732;2024-01-27T11:30:39;7.13;;;0.90;;
72319;SDS011;60269;52.502;16.732;2024-01-27T11:34:11;11.82;;;0.93;;
72319;SDS011;60269;52.502;16.732;2024-01-27T11:37:50;7.93;;;1.50;;
72319;SDS011;60269;52.502;16.732;2024-01-27T11:41:24;15.52;;;1.10;;
72319;SDS011;60269;52.502;16.732;2024-01-27T11:45:00;15.33;;;1.60;;
72319;SDS011;60269;52.502;16.732;2024-01-27T11:48:33;11.50;;;1.27;;
72319;SDS011;60269;52.502;16.732;2024-01-27T11:52:13;10.60;;;1.40;;
72319;SDS011;60269;52.502;16.732;2024-01-27T11:55:53;7.67;;;1.27;;
72319;SDS011;60269;52.502;16.732;2024-01-27T11:59:27;7.35;;;1.15;;
72319;SDS011;60269;52.502;16.732;2024-01-27T12:02:59;8.90;;;1.70;;
72319;SDS011;60269;52.502;16.732;2024-01-27T12:06:33;10.23;;;1.20;;
72319;SDS011;60269;52.502;16.732;2024-01-27T12:10:05;13.75;;;1.20;;
72319;SDS011;60269;52.502;16.732;2024-01-27T12:13:38;9.48;;;0.88;;
72319;SDS011;60269;52.502;16.732;2024-01-27T12:17:11;14.70;;;1.27;;
72319;SDS011;60269;52.502;16.732;2024-01-27T12:20:43;11.47;;;1.20;;
72319;SDS011;60269;52.502;16.732;2024-01-27T12:24:16;10.00;;;1.10;;
72319;SDS011;60269;52.502;16.732;2024-01-27T12:27:53;10.65;;;1.00;;
72319;SDS011;60269;52.502;16.732;2024-01-27T12:31:30;10.80;;;1.37;;
72319;SDS011;60269;52.502;16.732;2024-01-27T12:35:06;9.13;;;1.10;;
72319;SDS011;60269;52.502;16.732;2024-01-27T12:38:39;12.82;;;1.38;;
72319;SDS011;60269;52.502;16.732;2024-01-27T12:42:11;8.23;;;0.87;;
72319;SDS011;60269;52.502;16.732;2024-01-27T12:45:44;5.90;;;1.02;;
72319;SDS011;60269;52.502;16.732;2024-01-27T12:49:17;7.00;;;0.85;;
72319;SDS011;60269;52.502;16.732;2024-01-27T12:52:49;12.05;;;1.40;;
72319;SDS011;60269;52.502;16.732;2024-01-27T12:56:21;11.27;;;1.80;;
72319;SDS011;60269;52.502;16.732;2024-01-27T12:59:54;14.60;;;1.38;;
72319;SDS011;60269;52.502;16.732;2024-01-27T13:03:26;9.95;;;1.95;;
72319;SDS011;60269;52.502;16.732;2024-01-27T13:06:58;10.57;;;1.10;;
72319;SDS011;60269;52.502;16.732;2024-01-27T13:10:31;5.20;;;1.13;;
72319;SDS011;60269;52.502;16.732;2024-01-27T13:14:03;14.88;;;1.38;;
72319;SDS011;60269;52.502;16.732;2024-01-27T13:17:37;13.23;;;0.93;;
72319;SDS011;60269;52.502;16.732;2024-01-27T13:21:09;12.68;;;1.33;;
72319;SDS011;60269;52.502;16.732;2024-01-27T13:24:41;8.38;;;1.40;;
72319;SDS011;60269;52.502;16.732;2024-01-27T13:28:13;15.90;;;1.10;;
72319;SDS011;60269;52.502;16.732;2024-01-27T13:31:46;10.43;;;1.30;;
72319;SDS011;60269;52.502;16.732;2024-01-27T13:35:18;11.15;;;1.88;;
72319;SDS011;60269;52.502;16.732;2024-01-27T13:38:50;12.80;;;1.38;;
72319;SDS011;60269;52.502;16.732;2024-01-27T13:42:23;10.30;;;2.40;;
72319;SDS011;60269;52.502;16.732;2024-01-27T13:45:55;10.52;;;1.17;;
72319;SDS011;60269;52.502;16.732;2024-01-27T13:49:27;9.73;;;1.35;;
72319;SDS011;60269;52.502;16.732;2024-01-27T13:52:59;29.57;;;1.93;;
72319;SDS011;60269;52.502;16.732;2024-01-27T13:56:31;11.40;;;1.55;;
72319;SDS011;60269;52.502;16.732;2024-01-27T14:00:04;14.75;;;1.90;;
72319;SDS011;60269;52.502;16.732;2024-01-27T14:03:38;15.32;;;1.70;;
72319;SDS011;60269;52.502;16.732;2024-01-27T14:07:10;6.13;;;0.60;;
72319;SDS011;60269;52.502;16.732;2024-01-27T14:10:42;13.15;;;1.30;;
72319;SDS011;60269;52.502;16.732;2024-01-27T14:14:15;7.47;;;0.90;;
72319;SDS011;60269;52.502;16.732;2024-01-27T14:17:48;7.20;;;1.17;;
72319;SDS011;60269;52.502;16.732;2024-01-27T14:21:20;13.27;;;1.73;;
72319;SDS011;60269;52.502;16.732;2024-01-27T14:24:52;13.45;;;1.40;;
72319;SDS011;60269;52.502;16.732;2024-01-27T14:28:24;11.00;;;1.50;;
72319;SDS011;60269;52.502;16.732;2024-01-27T14:31:57;9.57;;;1.20;;
72319;SDS011;60269;52.502;16.732;2024-01-27T14:35:29;13.52;;;1.65;;
72319;SDS011;60269;52.502;16.732;2024-01-27T14:39:01;12.57;;;2.10;;
72319;SDS011;60269;52.502;16.732;2024-01-27T14:42:34;12.83;;;1.33;;
72319;SDS011;60269;52.502;16.732;2024-01-27T14:46:08;11.65;;;1.42;;
72319;SDS011;60269;52.502;16.732;2024-01-27T14:49:40;9.68;;;1.65;;
72319;SDS011;60269;52.502;16.732;2024-01-27T14:53:15;13.50;;;1.73;;
72319;SDS011;60269;52.502;16.732;2024-01-27T14:56:47;11.23;;;1.60;;
72319;SDS011;60269;52.502;16.732;2024-01-27T15:00:19;11.75;;;0.93;;
72319;SDS011;60269;52.502;16.732;2024-01-27T15:03:51;14.57;;;1.00;;
72319;SDS011;60269;52.502;16.732;2024-01-27T15:07:24;19.23;;;2.45;;
72319;SDS011;60269;52.502;16.732;2024-01-27T15:11:01;12.85;;;1.42;;
72319;SDS011;60269;52.502;16.732;2024-01-27T15:14:34;9.70;;;1.20;;
72319;SDS011;60269;52.502;16.732;2024-01-27T15:18:07;9.90;;;0.87;;
72319;SDS011;60269;52.502;16.732;2024-01-27T15:21:39;17.90;;;1.42;;
72319;SDS011;60269;52.502;16.732;2024-01-27T15:25:12;9.57;;;0.90;;
72319;SDS011;60269;52.502;16.732;2024-01-27T15:28:44;8.77;;;1.50;;
72319;SDS011;60269;52.502;16.732;2024-01-27T15:32:16;9.10;;;0.98;;
72319;SDS011;60269;52.502;16.732;2024-01-27T15:35:52;16.20;;;1.50;;
72319;SDS011;60269;52.502;16.732;2024-01-27T15:39:24;7.77;;;0.87;;
72319;SDS011;60269;52.502;16.732;2024-01-27T15:42:57;8.63;;;1.20;;
72319;SDS011;60269;52.502;16.732;2024-01-27T15:46:29;13.38;;;1.55;;
72319;SDS011;60269;52.502;16.732;2024-01-27T15:50:03;7.22;;;1.02;;
72319;SDS011;60269;52.502;16.732;2024-01-27T15:53:36;12.57;;;1.30;;
72319;SDS011;60269;52.502;16.732;2024-01-27T15:57:08;9.25;;;1.95;;
72319;SDS011;60269;52.502;16.732;2024-01-27T16:00:40;7.35;;;1.25;;
72319;SDS011;60269;52.502;16.732;2024-01-27T16:04:12;12.60;;;1.37;;
72319;SDS011;60269;52.502;16.732;2024-01-27T16:07:48;12.15;;;0.85;;
72319;SDS011;60269;52.502;16.732;2024-01-27T16:11:20;13.95;;;2.28;;
72319;SDS011;60269;52.502;16.732;2024-01-27T16:14:52;11.67;;;1.73;;
72319;SDS011;60269;52.502;16.732;2024-01-27T16:18:24;13.20;;;2.03;;
72319;SDS011;60269;52.502;16.732;2024-01-27T16:21:56;16.60;;;1.90;;
72319;SDS011;60269;52.502;16.732;2024-01-27T16:25:29;14.85;;;3.10;;
72319;SDS011;60269;52.502;16.732;2024-01-27T16:29:01;17.70;;;2.77;;
72319;SDS011;60269;52.502;16.732;2024-01-27T16:32:33;22.80;;;3.38;;
72319;SDS011;60269;52.502;16.732;2024-01-27T16:36:05;20.30;;;2.63;;
72319;SDS011;60269;52.502;16.732;2024-01-27T16:39:38;10.27;;;1.57;;
72319;SDS011;60269;52.502;16.732;2024-01-27T16:43:10;13.20;;;4.55;;
72319;SDS011;60269;52.502;16.732;2024-01-27T16:46:42;16.40;;;2.97;;
72319;SDS011;60269;52.502;16.732;2024-01-27T16:50:17;17.67;;;3.60;;
72319;SDS011;60269;52.502;16.732;2024-01-27T16:53:49;18.15;;;3.30;;
72319;SDS011;60269;52.502;16.732;2024-01-27T16:57:21;21.20;;;6.03;;
72319;SDS011;60269;52.502;16.732;2024-01-27T17:00:54;28.30;;;7.03;;
72319;SDS011;60269;52.502;16.732;2024-01-27T17:04:26;17.70;;;4.23;;
72319;SDS011;60269;52.502;16.732;2024-01-27T17:07:58;21.73;;;2.75;;
72319;SDS011;60269;52.502;16.732;2024-01-27T17:11:31;18.80;;;4.53;;
72319;SDS011;60269;52.502;16.732;2024-01-27T17:15:03;17.73;;;3.87;;
72319;SDS011;60269;52.502;16.732;2024-01-27T17:18:42;17.27;;;2.80;;
72319;SDS011;60269;52.502;16.732;2024-01-27T17:22:14;19.00;;;5.63;;
72319;SDS011;60269;52.502;16.732;2024-01-27T17:25:46;13.27;;;2.87;;
72319;SDS011;60269;52.502;16.732;2024-01-27T17:29:18;16.80;;;3.35;;
72319;SDS011;60269;52.502;16.732;2024-01-27T17:32:50;14.13;;;3.83;;
72319;SDS011;60269;52.502;16.732;2024-01-27T17:36:23;14.13;;;3.00;;
72319;SDS011;60269;52.502;16.732;2024-01-27T17:39:55;18.27;;;3.73;;
72319;SDS011;60269;52.502;16.732;2024-01-27T17:43:27;22.40;;;4.40;;
72319;SDS011;60269;52.502;16.732;2024-01-27T17:47:00;20.50;;;2.88;;
72319;SDS011;60269;52.502;16.732;2024-01-27T17:50:33;17.90;;;4.50;;
72319;SDS011;60269;52.502;16.732;2024-01-27T17:54:06;16.17;;;3.92;;
72319;SDS011;60269;52.502;16.732;2024-01-27T17:57:42;13.55;;;3.60;;
72319;SDS011;60269;52.502;16.732;2024-01-27T18:01:15;20.63;;;4.73;;
72319;SDS011;60269;52.502;16.732;2024-01-27T18:04:47;24.45;;;4.95;;
72319;SDS011;60269;52.502;16.732;2024-01-27T18:08:19;21.85;;;4.03;;
72319;SDS011;60269;52.502;16.732;2024-01-27T18:11:51;24.67;;;6.22;;
72319;SDS011;60269;52.502;16.732;2024-01-27T18:15:23;18.03;;;4.13;;
72319;SDS011;60269;52.502;16.732;2024-01-27T18:18:55;34.20;;;6.72;;
72319;SDS011;60269;52.502;16.732;2024-01-27T18:22:27;26.50;;;6.53;;
72319;SDS011;60269;52.502;16.732;2024-01-27T18:25:59;22.63;;;4.57;;
72319;SDS011;60269;52.502;16.732;2024-01-27T18:29:31;16.98;;;3.38;;
72319;SDS011;60269;52.502;16.732;2024-01-27T18:33:04;15.48;;;3.33;;
72319;SDS011;60269;52.502;16.732;2024-01-27T18:36:37;18.20;;;2.90;;
72319;SDS011;60269;52.502;16.732;2024-01-27T18:40:09;18.83;;;3.13;;
72319;SDS011;60269;52.502;16.732;2024-01-27T18:43:41;18.52;;;4.00;;
72319;SDS011;60269;52.502;16.732;2024-01-27T18:47:14;20.08;;;3.65;;
72319;SDS011;60269;52.502;16.732;2024-01-27T18:50:45;22.93;;;5.47;;
72319;SDS011;60269;52.502;16.732;2024-01-27T18:54:17;22.15;;;3.10;;
72319;SDS011;60269;52.502;16.732;2024-01-27T18:57:50;26.23;;;5.30;;
72319;SDS011;60269;52.502;16.732;2024-01-27T19:01:22;15.23;;;2.80;;
72319;SDS011;60269;52.502;16.732;2024-01-27T19:04:54;20.45;;;3.80;;
72319;SDS011;60269;52.502;16.732;2024-01-27T19:08:29;23.08;;;4.65;;
72319;SDS011;60269;52.502;16.732;2024-01-27T19:12:01;17.53;;;3.97;;
72319;SDS011;60269;52.502;16.732;2024-01-27T19:15:34;25.85;;;4.10;;
72319;SDS011;60269;52.502;16.732;2024-01-27T19:19:06;23.77;;;3.72;;
72319;SDS011;60269;52.502;16.732;2024-01-27T19:22:38;20.75;;;2.25;;
72319;SDS011;60269;52.502;16.732;2024-01-27T19:26:11;15.13;;;2.80;;
72319;SDS011;60269;52.502;16.732;2024-01-27T19:29:43;19.40;;;2.83;;
72319;SDS011;60269;52.502;16.732;2024-01-27T19:33:15;16.45;;;4.00;;
72319;SDS011;60269;52.502;16.732;2024-01-27T19:36:48;15.27;;;2.10;;
72319;SDS011;60269;52.502;16.732;2024-01-27T19:40:20;15.00;;;3.05;;
72319;SDS011;60269;52.502;16.732;2024-01-27T19:43:52;14.35;;;2.17;;
72319;SDS011;60269;52.502;16.732;2024-01-27T19:47:24;12.87;;;2.30;;
72319;SDS011;60269;52.502;16.732;2024-01-27T19:51:01;12.70;;;2.50;;
72319;SDS011;60269;52.502;16.732;2024-01-27T19:54:34;18.50;;;3.20;;
72319;SDS011;60269;52.502;16.732;2024-01-27T19:58:06;15.10;;;2.83;;
72319;SDS011;60269;52.502;16.732;2024-01-27T20:01:38;8.07;;;2.33;;
72319;SDS011;60269;52.502;16.732;2024-01-27T20:05:10;11.55;;;1.38;;
72319;SDS011;60269;52.502;16.732;2024-01-27T20:08:43;15.13;;;3.20;;
72319;SDS011;60269;52.502;16.732;2024-01-27T20:12:15;13.20;;;2.53;;
72319;SDS011;60269;52.502;16.732;2024-01-27T20:15:47;16.40;;;2.40;;
72319;SDS011;60269;52.502;16.732;2024-01-27T20:19:19;11.52;;;1.58;;
72319;SDS011;60269;52.502;16.732;2024-01-27T20:22:53;15.07;;;2.10;;
72319;SDS011;60269;52.502;16.732;2024-01-27T20:26:25;12.73;;;1.73;;
72319;SDS011;60269;52.502;16.732;2024-01-27T20:29:57;9.90;;;2.30;;
72319;SDS011;60269;52.502;16.732;2024-01-27T20:33:30;10.73;;;1.83;;
72319;SDS011;60269;52.502;16.732;2024-01-27T20:37:16;15.50;;;2.67;;
72319;SDS011;60269;52.502;16.732;2024-01-27T20:40:48;12.60;;;1.77;;
72319;SDS011;60269;52.502;16.732;2024-01-27T20:44:20;22.52;;;2.72;;
72319;SDS011;60269;52.502;16.732;2024-01-27T20:47:55;14.33;;;2.70;;
72319;SDS011;60269;52.502;16.732;2024-01-27T20:51:27;17.42;;;2.47;;